Terminal Aerodrome Forecast
Issued by NWS Wilmington, OH

Home | Current Version | Previous Version | Text Only | Print | Product List | Glossary On
Versions: 1 2 3 4 5 6 7 8 9 10 11 12 13 14 15 16 17 18 19 20 21 22 23 24 25
000
FTUS41 KILN 082037 AAC
TAFCVG
TAF AMD
KCVG 082037Z 0821/0924 28015G25KT P6SM SCT035
     FM082300 29011KT P6SM OVC025
     FM091000 28008KT P6SM OVC018
     FM091500 27007KT P6SM BKN025=

USA.gov is the U.S. government's official web portal to all federal, state and local government web resources and services.